sensor_id;sensor_type;location;lat;lon;timestamp;temperature;humidity
16038;DHT22;8123;50.906;6.172;2022-07-29T00:02:04;19.00;99.90
16038;DHT22;8123;50.906;6.172;2022-07-29T00:04:29;19.00;99.90
16038;DHT22;8123;50.906;6.172;2022-07-29T00:06:55;18.90;99.90
16038;DHT22;8123;50.906;6.172;2022-07-29T00:09:22;18.90;99.90
16038;DHT22;8123;50.906;6.172;2022-07-29T00:11:47;18.90;99.90
16038;DHT22;8123;50.906;6.172;2022-07-29T00:14:13;18.90;99.90
16038;DHT22;8123;50.906;6.172;2022-07-29T00:16:39;18.80;99.90
16038;DHT22;8123;50.906;6.172;2022-07-29T00:19:04;18.90;99.90
16038;DHT22;8123;50.906;6.172;2022-07-29T00:21:30;18.90;99.90
16038;DHT22;8123;50.906;6.172;2022-07-29T00:23:56;18.80;99.90
16038;DHT22;8123;50.906;6.172;2022-07-29T00:26:21;18.80;99.90
16038;DHT22;8123;50.906;6.172;2022-07-29T00:28:47;18.80;99.90
16038;DHT22;8123;50.906;6.172;2022-07-29T00:31:13;18.80;99.90
16038;DHT22;8123;50.906;6.172;2022-07-29T00:33:38;18.80;99.90
16038;DHT22;8123;50.906;6.172;2022-07-29T00:36:04;18.80;99.90
16038;DHT22;8123;50.906;6.172;2022-07-29T00:38:30;18.70;99.90
16038;DHT22;8123;50.906;6.172;2022-07-29T00:40:55;18.70;99.90
16038;DHT22;8123;50.906;6.172;2022-07-29T00:43:21;18.70;99.90
16038;DHT22;8123;50.906;6.172;2022-07-29T00:45:47;18.70;99.90
16038;DHT22;8123;50.906;6.172;2022-07-29T00:48:12;18.60;99.90
16038;DHT22;8123;50.906;6.172;2022-07-29T00:50:38;18.60;99.90
16038;DHT22;8123;50.906;6.172;2022-07-29T00:53:06;18.60;99.90
16038;DHT22;8123;50.906;6.172;2022-07-29T00:55:32;18.50;99.90
16038;DHT22;8123;50.906;6.172;2022-07-29T00:57:58;18.50;99.90
16038;DHT22;8123;50.906;6.172;2022-07-29T01:00:25;18.50;99.90
16038;DHT22;8123;50.906;6.172;2022-07-29T01:02:51;18.50;99.90
16038;DHT22;8123;50.906;6.172;2022-07-29T01:05:19;18.40;99.90
16038;DHT22;8123;50.906;6.172;2022-07-29T01:07:48;18.30;99.90
16038;DHT22;8123;50.906;6.172;2022-07-29T01:10:15;18.30;99.90
16038;DHT22;8123;50.906;6.172;2022-07-29T01:12:43;18.30;99.90
16038;DHT22;8123;50.906;6.172;2022-07-29T01:15:09;18.30;99.90
16038;DHT22;8123;50.906;6.172;2022-07-29T01:17:45;18.30;99.90
16038;DHT22;8123;50.906;6.172;2022-07-29T01:23:01;18.20;99.90
16038;DHT22;8123;50.906;6.172;2022-07-29T01:28:45;18.00;99.90
16038;DHT22;8123;50.906;6.172;2022-07-29T01:31:20;18.00;99.90
16038;DHT22;8123;50.906;6.172;2022-07-29T01:33:52;17.90;99.90
16038;DHT22;8123;50.906;6.172;2022-07-29T01:39:20;17.70;99.90
16038;DHT22;8123;50.906;6.172;2022-07-29T01:45:08;17.70;99.90
16038;DHT22;8123;50.906;6.172;2022-07-29T01:48:05;17.60;99.90
16038;DHT22;8123;50.906;6.172;2022-07-29T01:50:37;17.60;99.90
16038;DHT22;8123;50.906;6.172;2022-07-29T01:53:09;17.60;99.90
16038;DHT22;8123;50.906;6.172;2022-07-29T01:55:39;17.60;99.90
16038;DHT22;8123;50.906;6.172;2022-07-29T01:58:07;17.60;99.90
16038;DHT22;8123;50.906;6.172;2022-07-29T02:00:34;17.60;99.90
16038;DHT22;8123;50.906;6.172;2022-07-29T02:03:07;17.60;99.90
16038;DHT22;8123;50.906;6.172;2022-07-29T02:05:35;17.60;99.90
16038;DHT22;8123;50.906;6.172;2022-07-29T02:08:03;17.60;99.90
16038;DHT22;8123;50.906;6.172;2022-07-29T02:10:34;17.60;99.90
16038;DHT22;8123;50.906;6.172;2022-07-29T02:13:02;17.60;99.90
16038;DHT22;8123;50.906;6.172;2022-07-29T02:15:30;17.60;99.90
16038;DHT22;8123;50.906;6.172;2022-07-29T02:18:07;17.60;99.90
16038;DHT22;8123;50.906;6.172;2022-07-29T02:20:33;17.60;99.90
16038;DHT22;8123;50.906;6.172;2022-07-29T02:23:00;17.60;99.90
16038;DHT22;8123;50.906;6.172;2022-07-29T02:25:27;17.60;99.90
16038;DHT22;8123;50.906;6.172;2022-07-29T02:27:55;17.60;99.90
16038;DHT22;8123;50.906;6.172;2022-07-29T02:30:22;17.60;99.90
16038;DHT22;8123;50.906;6.172;2022-07-29T02:32:48;17.60;99.90
16038;DHT22;8123;50.906;6.172;2022-07-29T02:35:16;17.50;99.90
16038;DHT22;8123;50.906;6.172;2022-07-29T02:37:44;17.60;99.90
16038;DHT22;8123;50.906;6.172;2022-07-29T02:40:11;17.50;99.90
16038;DHT22;8123;50.906;6.172;2022-07-29T02:42:42;17.50;99.90
16038;DHT22;8123;50.906;6.172;2022-07-29T02:45:09;17.50;99.90
16038;DHT22;8123;50.906;6.172;2022-07-29T02:47:42;17.50;99.90
16038;DHT22;8123;50.906;6.172;2022-07-29T02:50:15;17.50;99.90
16038;DHT22;8123;50.906;6.172;2022-07-29T02:52:59;17.50;99.90
16038;DHT22;8123;50.906;6.172;2022-07-29T02:55:30;17.50;99.90
16038;DHT22;8123;50.906;6.172;2022-07-29T02:58:17;17.50;99.90
16038;DHT22;8123;50.906;6.172;2022-07-29T03:00:47;17.50;99.90
16038;DHT22;8123;50.906;6.172;2022-07-29T03:03:16;17.50;99.90
16038;DHT22;8123;50.906;6.172;2022-07-29T03:05:42;17.50;99.90
16038;DHT22;8123;50.906;6.172;2022-07-29T03:08:11;17.60;99.90
16038;DHT22;8123;50.906;6.172;2022-07-29T03:10:41;17.60;99.90
16038;DHT22;8123;50.906;6.172;2022-07-29T03:13:09;17.60;99.90
16038;DHT22;8123;50.906;6.172;2022-07-29T03:15:36;17.50;99.90
16038;DHT22;8123;50.906;6.172;2022-07-29T03:18:02;17.50;99.90
16038;DHT22;8123;50.906;6.172;2022-07-29T03:20:28;17.50;99.90
16038;DHT22;8123;50.906;6.172;2022-07-29T03:22:53;17.50;99.90
16038;DHT22;8123;50.906;6.172;2022-07-29T03:25:20;17.40;99.90
16038;DHT22;8123;50.906;6.172;2022-07-29T03:27:48;17.40;99.90
16038;DHT22;8123;50.906;6.172;2022-07-29T03:30:14;17.40;99.90
16038;DHT22;8123;50.906;6.172;2022-07-29T03:32:41;17.30;99.90
16038;DHT22;8123;50.906;6.172;2022-07-29T03:35:07;17.30;99.90
16038;DHT22;8123;50.906;6.172;2022-07-29T03:37:33;17.30;99.90
16038;DHT22;8123;50.906;6.172;2022-07-29T03:40:00;17.20;99.90
16038;DHT22;8123;50.906;6.172;2022-07-29T03:42:30;17.10;99.90
16038;DHT22;8123;50.906;6.172;2022-07-29T03:44:58;17.10;99.90
16038;DHT22;8123;50.906;6.172;2022-07-29T03:47:27;17.10;99.90
16038;DHT22;8123;50.906;6.172;2022-07-29T03:50:00;17.00;99.90
16038;DHT22;8123;50.906;6.172;2022-07-29T03:52:27;17.00;99.90
16038;DHT22;8123;50.906;6.172;2022-07-29T03:54:53;17.00;99.90
16038;DHT22;8123;50.906;6.172;2022-07-29T03:57:22;16.90;99.90
16038;DHT22;8123;50.906;6.172;2022-07-29T03:59:49;16.90;99.90
16038;DHT22;8123;50.906;6.172;2022-07-29T04:02:16;16.90;99.90
16038;DHT22;8123;50.906;6.172;2022-07-29T04:04:42;16.90;99.90
16038;DHT22;8123;50.906;6.172;2022-07-29T04:07:12;17.00;99.90
16038;DHT22;8123;50.906;6.172;2022-07-29T04:09:37;17.00;99.90
16038;DHT22;8123;50.906;6.172;2022-07-29T04:12:03;17.00;99.90
16038;DHT22;8123;50.906;6.172;2022-07-29T04:14:33;17.10;99.90
16038;DHT22;8123;50.906;6.172;2022-07-29T04:17:00;17.10;99.90
16038;DHT22;8123;50.906;6.172;2022-07-29T04:19:25;17.20;99.90
16038;DHT22;8123;50.906;6.172;2022-07-29T04:21:51;17.20;99.90
16038;DHT22;8123;50.906;6.172;2022-07-29T04:24:17;17.10;99.90
16038;DHT22;8123;50.906;6.172;2022-07-29T04:26:43;17.00;99.90
16038;DHT22;8123;50.906;6.172;2022-07-29T04:29:10;17.10;99.90
16038;DHT22;8123;50.906;6.172;2022-07-29T04:31:37;17.10;99.90
16038;DHT22;8123;50.906;6.172;2022-07-29T04:34:03;17.10;99.90
16038;DHT22;8123;50.906;6.172;2022-07-29T04:36:28;17.10;99.90
16038;DHT22;8123;50.906;6.172;2022-07-29T04:38:54;17.10;99.90
16038;DHT22;8123;50.906;6.172;2022-07-29T04:41:20;17.10;99.90
16038;DHT22;8123;50.906;6.172;2022-07-29T04:43:45;17.10;99.90
16038;DHT22;8123;50.906;6.172;2022-07-29T04:46:11;17.00;99.90
16038;DHT22;8123;50.906;6.172;2022-07-29T04:48:37;17.00;99.90
16038;DHT22;8123;50.906;6.172;2022-07-29T04:51:03;17.00;99.90
16038;DHT22;8123;50.906;6.172;2022-07-29T04:53:28;17.00;99.90
16038;DHT22;8123;50.906;6.172;2022-07-29T04:55:54;17.00;99.90
16038;DHT22;8123;50.906;6.172;2022-07-29T04:58:20;17.00;99.90
16038;DHT22;8123;50.906;6.172;2022-07-29T05:00:48;17.00;99.90
16038;DHT22;8123;50.906;6.172;2022-07-29T05:03:14;17.00;99.90
16038;DHT22;8123;50.906;6.172;2022-07-29T05:05:39;17.10;99.90
16038;DHT22;8123;50.906;6.172;2022-07-29T05:08:06;17.00;99.90
16038;DHT22;8123;50.906;6.172;2022-07-29T05:10:32;17.00;99.90
16038;DHT22;8123;50.906;6.172;2022-07-29T05:12:58;17.10;99.90
16038;DHT22;8123;50.906;6.172;2022-07-29T05:15:23;17.10;99.90
16038;DHT22;8123;50.906;6.172;2022-07-29T05:17:49;17.10;99.90
16038;DHT22;8123;50.906;6.172;2022-07-29T05:20:15;17.00;99.90
16038;DHT22;8123;50.906;6.172;2022-07-29T05:22:40;17.00;99.90
16038;DHT22;8123;50.906;6.172;2022-07-29T05:25:06;16.90;99.90
16038;DHT22;8123;50.906;6.172;2022-07-29T05:27:32;16.90;99.90
16038;DHT22;8123;50.906;6.172;2022-07-29T05:29:57;16.90;99.90
16038;DHT22;8123;50.906;6.172;2022-07-29T05:32:23;16.80;99.90
16038;DHT22;8123;50.906;6.172;2022-07-29T05:34:49;16.90;99.90
16038;DHT22;8123;50.906;6.172;2022-07-29T05:37:14;16.90;99.90
16038;DHT22;8123;50.906;6.172;2022-07-29T05:39:40;16.90;99.90
16038;DHT22;8123;50.906;6.172;2022-07-29T05:42:12;16.90;99.90
16038;DHT22;8123;50.906;6.172;2022-07-29T05:44:38;16.90;99.90
16038;DHT22;8123;50.906;6.172;2022-07-29T05:47:04;17.10;99.90
16038;DHT22;8123;50.906;6.172;2022-07-29T05:49:30;17.10;99.90
16038;DHT22;8123;50.906;6.172;2022-07-29T05:51:55;17.10;99.90
16038;DHT22;8123;50.906;6.172;2022-07-29T05:54:21;17.20;99.90
16038;DHT22;8123;50.906;6.172;2022-07-29T05:56:46;17.30;99.90
16038;DHT22;8123;50.906;6.172;2022-07-29T05:59:12;17.30;99.90
16038;DHT22;8123;50.906;6.172;2022-07-29T06:01:38;17.30;99.90
16038;DHT22;8123;50.906;6.172;2022-07-29T06:04:05;17.30;99.90
16038;DHT22;8123;50.906;6.172;2022-07-29T06:06:32;17.40;99.90
16038;DHT22;8123;50.906;6.172;2022-07-29T06:08:59;17.50;99.90
16038;DHT22;8123;50.906;6.172;2022-07-29T06:11:24;17.60;99.90
16038;DHT22;8123;50.906;6.172;2022-07-29T06:13:50;17.60;99.90
16038;DHT22;8123;50.906;6.172;2022-07-29T06:16:15;17.80;99.90
16038;DHT22;8123;50.906;6.172;2022-07-29T06:18:41;17.80;99.90
16038;DHT22;8123;50.906;6.172;2022-07-29T06:21:08;18.00;99.90
16038;DHT22;8123;50.906;6.172;2022-07-29T06:23:35;18.00;99.90
16038;DHT22;8123;50.906;6.172;2022-07-29T06:26:01;17.80;99.90
16038;DHT22;8123;50.906;6.172;2022-07-29T06:28:27;17.80;99.90
16038;DHT22;8123;50.906;6.172;2022-07-29T06:30:53;17.80;99.90
16038;DHT22;8123;50.906;6.172;2022-07-29T06:33:19;17.70;99.90
16038;DHT22;8123;50.906;6.172;2022-07-29T06:35:45;17.80;99.90
16038;DHT22;8123;50.906;6.172;2022-07-29T06:38:13;17.80;99.90
16038;DHT22;8123;50.906;6.172;2022-07-29T06:40:44;17.80;99.90
16038;DHT22;8123;50.906;6.172;2022-07-29T06:43:30;17.90;99.90
16038;DHT22;8123;50.906;6.172;2022-07-29T06:46:04;17.90;99.90
16038;DHT22;8123;50.906;6.172;2022-07-29T06:48:31;18.00;99.90
16038;DHT22;8123;50.906;6.172;2022-07-29T06:50:56;18.00;99.90
16038;DHT22;8123;50.906;6.172;2022-07-29T06:53:22;18.00;99.90
16038;DHT22;8123;50.906;6.172;2022-07-29T06:55:48;17.90;99.90
16038;DHT22;8123;50.906;6.172;2022-07-29T06:58:14;17.90;99.90
16038;DHT22;8123;50.906;6.172;2022-07-29T07:00:41;17.90;99.90
16038;DHT22;8123;50.906;6.172;2022-07-29T07:03:07;17.80;99.90
16038;DHT22;8123;50.906;6.172;2022-07-29T07:05:33;17.80;99.90
16038;DHT22;8123;50.906;6.172;2022-07-29T07:07:58;17.70;99.90
16038;DHT22;8123;50.906;6.172;2022-07-29T07:10:24;17.60;99.90
16038;DHT22;8123;50.906;6.172;2022-07-29T07:12:50;17.60;99.90
16038;DHT22;8123;50.906;6.172;2022-07-29T07:15:16;17.70;99.90
16038;DHT22;8123;50.906;6.172;2022-07-29T07:17:41;17.70;99.90
16038;DHT22;8123;50.906;6.172;2022-07-29T07:20:07;17.60;99.90
16038;DHT22;8123;50.906;6.172;2022-07-29T07:22:33;17.80;99.90
16038;DHT22;8123;50.906;6.172;2022-07-29T07:24:58;17.90;99.90
16038;DHT22;8123;50.906;6.172;2022-07-29T07:27:24;17.90;99.90
16038;DHT22;8123;50.906;6.172;2022-07-29T07:29:50;18.00;99.90
16038;DHT22;8123;50.906;6.172;2022-07-29T07:32:15;18.10;99.90
16038;DHT22;8123;50.906;6.172;2022-07-29T07:34:44;18.30;99.90
16038;DHT22;8123;50.906;6.172;2022-07-29T07:37:10;18.40;99.90
16038;DHT22;8123;50.906;6.172;2022-07-29T07:39:36;18.60;99.90
16038;DHT22;8123;50.906;6.172;2022-07-29T07:42:01;18.70;99.90
16038;DHT22;8123;50.906;6.172;2022-07-29T07:44:27;18.80;99.90
16038;DHT22;8123;50.906;6.172;2022-07-29T07:46:52;19.10;99.90
16038;DHT22;8123;50.906;6.172;2022-07-29T07:49:18;19.00;99.90
16038;DHT22;8123;50.906;6.172;2022-07-29T07:51:44;19.10;99.90
16038;DHT22;8123;50.906;6.172;2022-07-29T07:54:09;19.30;99.90
16038;DHT22;8123;50.906;6.172;2022-07-29T07:56:35;19.30;99.90
16038;DHT22;8123;50.906;6.172;2022-07-29T07:59:01;19.40;99.90
16038;DHT22;8123;50.906;6.172;2022-07-29T08:01:26;19.40;99.90
16038;DHT22;8123;50.906;6.172;2022-07-29T08:03:52;19.40;99.90
16038;DHT22;8123;50.906;6.172;2022-07-29T08:06:17;19.60;99.90
16038;DHT22;8123;50.906;6.172;2022-07-29T08:08:43;19.80;99.90
16038;DHT22;8123;50.906;6.172;2022-07-29T08:11:09;19.90;99.90
16038;DHT22;8123;50.906;6.172;2022-07-29T08:13:35;20.00;99.90
16038;DHT22;8123;50.906;6.172;2022-07-29T08:16:00;20.10;99.90
16038;DHT22;8123;50.906;6.172;2022-07-29T08:18:30;20.20;99.90
16038;DHT22;8123;50.906;6.172;2022-07-29T08:20:57;20.10;99.90
16038;DHT22;8123;50.906;6.172;2022-07-29T08:23:23;20.20;99.90
16038;DHT22;8123;50.906;6.172;2022-07-29T08:25:49;20.20;99.90
16038;DHT22;8123;50.906;6.172;2022-07-29T08:28:16;20.20;99.90
16038;DHT22;8123;50.906;6.172;2022-07-29T08:30:41;20.30;99.90
16038;DHT22;8123;50.906;6.172;2022-07-29T08:33:07;20.40;99.90
16038;DHT22;8123;50.906;6.172;2022-07-29T08:35:33;20.40;99.90
16038;DHT22;8123;50.906;6.172;2022-07-29T08:37:58;20.40;99.90
16038;DHT22;8123;50.906;6.172;2022-07-29T08:40:24;20.60;99.90
16038;DHT22;8123;50.906;6.172;2022-07-29T08:42:50;20.60;99.90
16038;DHT22;8123;50.906;6.172;2022-07-29T08:45:16;20.80;99.90
16038;DHT22;8123;50.906;6.172;2022-07-29T08:47:44;20.70;99.90
16038;DHT22;8123;50.906;6.172;2022-07-29T08:50:11;20.60;99.90
16038;DHT22;8123;50.906;6.172;2022-07-29T08:52:38;20.50;99.90
16038;DHT22;8123;50.906;6.172;2022-07-29T08:55:06;20.40;99.90
16038;DHT22;8123;50.906;6.172;2022-07-29T08:57:33;20.50;99.90
16038;DHT22;8123;50.906;6.172;2022-07-29T09:00:01;20.50;99.90
16038;DHT22;8123;50.906;6.172;2022-07-29T09:02:29;20.50;99.90
16038;DHT22;8123;50.906;6.172;2022-07-29T09:05:00;20.60;99.90
16038;DHT22;8123;50.906;6.172;2022-07-29T09:07:27;20.60;99.90
16038;DHT22;8123;50.906;6.172;2022-07-29T09:09:52;20.60;99.90
16038;DHT22;8123;50.906;6.172;2022-07-29T09:12:18;20.60;99.90
16038;DHT22;8123;50.906;6.172;2022-07-29T09:14:44;20.70;99.90
16038;DHT22;8123;50.906;6.172;2022-07-29T09:17:10;20.70;99.90
16038;DHT22;8123;50.906;6.172;2022-07-29T09:19:37;20.80;99.90
16038;DHT22;8123;50.906;6.172;2022-07-29T09:22:07;20.80;99.90
16038;DHT22;8123;50.906;6.172;2022-07-29T09:24:45;20.80;99.90
16038;DHT22;8123;50.906;6.172;2022-07-29T09:27:22;20.80;99.90
16038;DHT22;8123;50.906;6.172;2022-07-29T09:30:08;20.90;99.90
16038;DHT22;8123;50.906;6.172;2022-07-29T09:32:57;21.00;99.90
16038;DHT22;8123;50.906;6.172;2022-07-29T09:35:25;21.00;99.90
16038;DHT22;8123;50.906;6.172;2022-07-29T09:37:51;20.90;99.90
16038;DHT22;8123;50.906;6.172;2022-07-29T09:40:19;21.00;99.90
16038;DHT22;8123;50.906;6.172;2022-07-29T09:42:46;21.00;99.90
16038;DHT22;8123;50.906;6.172;2022-07-29T09:45:13;21.00;99.90
16038;DHT22;8123;50.906;6.172;2022-07-29T09:47:51;21.10;99.90
16038;DHT22;8123;50.906;6.172;2022-07-29T09:50:16;20.90;99.90
16038;DHT22;8123;50.906;6.172;2022-07-29T09:52:50;20.90;99.90
16038;DHT22;8123;50.906;6.172;2022-07-29T09:55:16;20.90;99.90
16038;DHT22;8123;50.906;6.172;2022-07-29T09:57:43;21.10;99.90
16038;DHT22;8123;50.906;6.172;2022-07-29T10:00:11;21.20;99.90
16038;DHT22;8123;50.906;6.172;2022-07-29T10:02:39;21.30;99.90
16038;DHT22;8123;50.906;6.172;2022-07-29T10:05:15;21.50;99.90
16038;DHT22;8123;50.906;6.172;2022-07-29T10:07:50;21.40;99.90
16038;DHT22;8123;50.906;6.172;2022-07-29T10:10:24;21.70;99.90
16038;DHT22;8123;50.906;6.172;2022-07-29T10:12:59;21.60;99.90
16038;DHT22;8123;50.906;6.172;2022-07-29T10:15:27;21.60;99.90
16038;DHT22;8123;50.906;6.172;2022-07-29T10:17:54;21.60;99.90
16038;DHT22;8123;50.906;6.172;2022-07-29T10:20:21;21.50;99.90
16038;DHT22;8123;50.906;6.172;2022-07-29T10:22:48;21.40;99.90
16038;DHT22;8123;50.906;6.172;2022-07-29T10:25:15;21.40;99.90
16038;DHT22;8123;50.906;6.172;2022-07-29T10:27:42;21.50;99.90
16038;DHT22;8123;50.906;6.172;2022-07-29T10:30:08;21.40;99.90
16038;DHT22;8123;50.906;6.172;2022-07-29T10:35:33;21.50;99.90
16038;DHT22;8123;50.906;6.172;2022-07-29T10:46:27;21.70;99.90
16038;DHT22;8123;50.906;6.172;2022-07-29T10:49:16;21.80;99.90
16038;DHT22;8123;50.906;6.172;2022-07-29T10:52:08;21.80;99.90
16038;DHT22;8123;50.906;6.172;2022-07-29T10:54:38;21.60;99.90
16038;DHT22;8123;50.906;6.172;2022-07-29T10:57:21;21.60;99.90
16038;DHT22;8123;50.906;6.172;2022-07-29T11:07:26;21.60;99.90
16038;DHT22;8123;50.906;6.172;2022-07-29T11:15:10;21.60;99.90
16038;DHT22;8123;50.906;6.172;2022-07-29T11:20:40;21.70;99.90
16038;DHT22;8123;50.906;6.172;2022-07-29T11:23:27;21.70;99.90
16038;DHT22;8123;50.906;6.172;2022-07-29T11:31:36;21.80;99.90
16038;DHT22;8123;50.906;6.172;2022-07-29T11:34:25;21.90;99.90
16038;DHT22;8123;50.906;6.172;2022-07-29T11:39:44;21.90;99.90
16038;DHT22;8123;50.906;6.172;2022-07-29T11:45:18;22.00;99.90
16038;DHT22;8123;50.906;6.172;2022-07-29T11:50:17;22.00;99.90
16038;DHT22;8123;50.906;6.172;2022-07-29T11:52:51;22.00;99.90
16038;DHT22;8123;50.906;6.172;2022-07-29T11:55:19;22.10;99.90
16038;DHT22;8123;50.906;6.172;2022-07-29T11:57:52;22.10;99.90
16038;DHT22;8123;50.906;6.172;2022-07-29T12:02:55;22.10;99.90
16038;DHT22;8123;50.906;6.172;2022-07-29T12:05:21;22.10;99.90
16038;DHT22;8123;50.906;6.172;2022-07-29T12:07:55;22.20;99.90
16038;DHT22;8123;50.906;6.172;2022-07-29T12:10:20;22.40;99.90
16038;DHT22;8123;50.906;6.172;2022-07-29T12:12:51;22.50;99.90
16038;DHT22;8123;50.906;6.172;2022-07-29T12:15:18;22.50;99.90
16038;DHT22;8123;50.906;6.172;2022-07-29T12:17:46;22.60;99.90
16038;DHT22;8123;50.906;6.172;2022-07-29T12:20:12;22.60;99.90
16038;DHT22;8123;50.906;6.172;2022-07-29T12:22:42;22.70;99.90
16038;DHT22;8123;50.906;6.172;2022-07-29T12:25:11;22.80;99.90
16038;DHT22;8123;50.906;6.172;2022-07-29T12:27:40;22.80;99.90
16038;DHT22;8123;50.906;6.172;2022-07-29T12:30:08;22.80;99.90
16038;DHT22;8123;50.906;6.172;2022-07-29T12:32:38;22.90;99.90
16038;DHT22;8123;50.906;6.172;2022-07-29T12:35:09;22.90;99.90
16038;DHT22;8123;50.906;6.172;2022-07-29T12:37:37;23.20;99.90
16038;DHT22;8123;50.906;6.172;2022-07-29T12:40:04;23.10;99.90
16038;DHT22;8123;50.906;6.172;2022-07-29T12:42:30;23.20;99.90
16038;DHT22;8123;50.906;6.172;2022-07-29T12:44:56;23.30;99.90
16038;DHT22;8123;50.906;6.172;2022-07-29T12:47:22;23.20;99.90
16038;DHT22;8123;50.906;6.172;2022-07-29T12:49:48;23.20;99.90
16038;DHT22;8123;50.906;6.172;2022-07-29T12:52:31;23.20;99.90
16038;DHT22;8123;50.906;6.172;2022-07-29T12:54:58;23.30;99.90
16038;DHT22;8123;50.906;6.172;2022-07-29T12:57:24;23.50;99.90
16038;DHT22;8123;50.906;6.172;2022-07-29T13:02:25;23.70;99.90
16038;DHT22;8123;50.906;6.172;2022-07-29T13:04:58;23.70;99.90
16038;DHT22;8123;50.906;6.172;2022-07-29T13:07:29;23.80;99.90
16038;DHT22;8123;50.906;6.172;2022-07-29T13:10:12;23.70;99.90
16038;DHT22;8123;50.906;6.172;2022-07-29T13:12:39;23.60;99.90
16038;DHT22;8123;50.906;6.172;2022-07-29T13:15:25;23.50;99.90
16038;DHT22;8123;50.906;6.172;2022-07-29T13:17:50;23.40;99.90
16038;DHT22;8123;50.906;6.172;2022-07-29T13:20:16;23.50;99.90
16038;DHT22;8123;50.906;6.172;2022-07-29T13:22:42;23.50;99.90
16038;DHT22;8123;50.906;6.172;2022-07-29T13:25:09;23.40;99.90
16038;DHT22;8123;50.906;6.172;2022-07-29T13:27:36;23.50;99.90
16038;DHT22;8123;50.906;6.172;2022-07-29T13:30:07;23.70;99.90
16038;DHT22;8123;50.906;6.172;2022-07-29T13:32:34;23.90;99.90
16038;DHT22;8123;50.906;6.172;2022-07-29T13:35:05;24.00;99.90
16038;DHT22;8123;50.906;6.172;2022-07-29T13:37:32;24.10;99.90
16038;DHT22;8123;50.906;6.172;2022-07-29T13:39:59;24.10;99.90
16038;DHT22;8123;50.906;6.172;2022-07-29T13:42:26;24.10;99.90
16038;DHT22;8123;50.906;6.172;2022-07-29T13:44:52;24.00;99.90
16038;DHT22;8123;50.906;6.172;2022-07-29T13:47:18;23.90;99.90
16038;DHT22;8123;50.906;6.172;2022-07-29T13:49:45;23.90;99.90
16038;DHT22;8123;50.906;6.172;2022-07-29T13:52:10;23.90;99.90
16038;DHT22;8123;50.906;6.172;2022-07-29T13:54:36;23.90;99.90
16038;DHT22;8123;50.906;6.172;2022-07-29T13:57:03;23.90;99.90
16038;DHT22;8123;50.906;6.172;2022-07-29T13:59:29;24.00;99.90
16038;DHT22;8123;50.906;6.172;2022-07-29T14:01:56;24.10;99.90
16038;DHT22;8123;50.906;6.172;2022-07-29T14:04:21;24.00;99.90
16038;DHT22;8123;50.906;6.172;2022-07-29T14:06:49;23.90;99.90
16038;DHT22;8123;50.906;6.172;2022-07-29T14:09:14;23.90;99.90
16038;DHT22;8123;50.906;6.172;2022-07-29T14:11:40;24.00;99.90
16038;DHT22;8123;50.906;6.172;2022-07-29T14:14:06;23.90;99.90
16038;DHT22;8123;50.906;6.172;2022-07-29T14:16:32;24.10;99.90
16038;DHT22;8123;50.906;6.172;2022-07-29T14:18:58;24.20;99.90
16038;DHT22;8123;50.906;6.172;2022-07-29T14:21:23;24.20;99.90
16038;DHT22;8123;50.906;6.172;2022-07-29T14:23:49;24.30;99.90
16038;DHT22;8123;50.906;6.172;2022-07-29T14:26:15;24.30;99.90
16038;DHT22;8123;50.906;6.172;2022-07-29T14:28:40;24.30;99.90
16038;DHT22;8123;50.906;6.172;2022-07-29T14:31:06;24.30;99.90
16038;DHT22;8123;50.906;6.172;2022-07-29T14:33:31;24.40;99.90
16038;DHT22;8123;50.906;6.172;2022-07-29T14:35:57;24.40;99.90
16038;DHT22;8123;50.906;6.172;2022-07-29T14:38:23;24.40;99.90
16038;DHT22;8123;50.906;6.172;2022-07-29T14:40:49;24.40;99.90
16038;DHT22;8123;50.906;6.172;2022-07-29T14:43:14;24.50;99.90
16038;DHT22;8123;50.906;6.172;2022-07-29T14:45:40;24.60;99.90
16038;DHT22;8123;50.906;6.172;2022-07-29T14:48:06;24.60;99.90
16038;DHT22;8123;50.906;6.172;2022-07-29T14:50:32;24.50;99.90
16038;DHT22;8123;50.906;6.172;2022-07-29T14:52:59;24.50;99.90
16038;DHT22;8123;50.906;6.172;2022-07-29T14:55:25;24.60;99.90
16038;DHT22;8123;50.906;6.172;2022-07-29T14:57:50;24.60;99.90
16038;DHT22;8123;50.906;6.172;2022-07-29T15:00:17;24.60;99.90
16038;DHT22;8123;50.906;6.172;2022-07-29T15:02:43;24.50;99.90
16038;DHT22;8123;50.906;6.172;2022-07-29T15:05:08;24.40;99.90
16038;DHT22;8123;50.906;6.172;2022-07-29T15:07:34;24.40;99.90
16038;DHT22;8123;50.906;6.172;2022-07-29T15:10:00;24.40;99.90
16038;DHT22;8123;50.906;6.172;2022-07-29T15:12:25;24.40;99.90
16038;DHT22;8123;50.906;6.172;2022-07-29T15:14:51;24.40;99.90
16038;DHT22;8123;50.906;6.172;2022-07-29T15:17:17;24.50;99.90
16038;DHT22;8123;50.906;6.172;2022-07-29T15:19:42;24.60;99.90
16038;DHT22;8123;50.906;6.172;2022-07-29T15:22:08;24.50;99.90
16038;DHT22;8123;50.906;6.172;2022-07-29T15:24:33;24.60;99.90
16038;DHT22;8123;50.906;6.172;2022-07-29T15:26:59;24.60;99.90
16038;DHT22;8123;50.906;6.172;2022-07-29T15:29:25;24.70;99.90
16038;DHT22;8123;50.906;6.172;2022-07-29T15:31:50;24.90;99.90
16038;DHT22;8123;50.906;6.172;2022-07-29T15:34:16;24.90;99.90
16038;DHT22;8123;50.906;6.172;2022-07-29T15:36:42;24.90;99.90
16038;DHT22;8123;50.906;6.172;2022-07-29T15:39:07;25.00;99.90
16038;DHT22;8123;50.906;6.172;2022-07-29T15:41:34;24.90;99.90
16038;DHT22;8123;50.906;6.172;2022-07-29T15:44:00;24.90;99.90
16038;DHT22;8123;50.906;6.172;2022-07-29T15:46:25;24.80;99.90
16038;DHT22;8123;50.906;6.172;2022-07-29T15:49:09;24.90;99.90
16038;DHT22;8123;50.906;6.172;2022-07-29T15:51:35;25.00;99.90
16038;DHT22;8123;50.906;6.172;2022-07-29T15:54:02;25.20;99.90
16038;DHT22;8123;50.906;6.172;2022-07-29T15:56:28;25.40;99.90
16038;DHT22;8123;50.906;6.172;2022-07-29T15:58:54;25.70;99.90
16038;DHT22;8123;50.906;6.172;2022-07-29T16:01:19;25.80;99.90
16038;DHT22;8123;50.906;6.172;2022-07-29T16:03:45;25.70;99.90
16038;DHT22;8123;50.906;6.172;2022-07-29T16:06:11;25.60;99.90
16038;DHT22;8123;50.906;6.172;2022-07-29T16:08:36;25.60;99.90
16038;DHT22;8123;50.906;6.172;2022-07-29T16:11:02;25.60;99.90
16038;DHT22;8123;50.906;6.172;2022-07-29T16:13:28;25.40;99.90
16038;DHT22;8123;50.906;6.172;2022-07-29T16:15:54;25.20;99.90
16038;DHT22;8123;50.906;6.172;2022-07-29T16:18:19;24.90;99.90
16038;DHT22;8123;50.906;6.172;2022-07-29T16:20:45;25.00;99.90
16038;DHT22;8123;50.906;6.172;2022-07-29T16:23:10;24.90;99.90
16038;DHT22;8123;50.906;6.172;2022-07-29T16:25:40;24.80;99.90
16038;DHT22;8123;50.906;6.172;2022-07-29T16:28:06;25.00;99.90
16038;DHT22;8123;50.906;6.172;2022-07-29T16:30:33;25.00;99.90
16038;DHT22;8123;50.906;6.172;2022-07-29T16:32:58;24.90;99.90
16038;DHT22;8123;50.906;6.172;2022-07-29T16:35:24;24.90;99.90
16038;DHT22;8123;50.906;6.172;2022-07-29T16:37:50;25.10;99.90
16038;DHT22;8123;50.906;6.172;2022-07-29T16:40:15;25.20;99.90
16038;DHT22;8123;50.906;6.172;2022-07-29T16:42:41;25.30;99.90
16038;DHT22;8123;50.906;6.172;2022-07-29T16:45:07;25.40;99.90
16038;DHT22;8123;50.906;6.172;2022-07-29T16:47:33;25.40;99.90